METAR Data
IDs: Format: Raw Decoded Include TAF

Data at: 0332 UTC 20 Mar 2019

METAR for:K6B9 (Skaneateles Arpt, NY, US)
Text:K6B9 200315Z AUTO 00000KT 10SM BKN048 OVC055 M02/M03 A3033 RMK AO2
Temperature: -2.0°C ( 28°F)
Dewpoint: -3.0°C ( 27°F) [RH = 93%]
Pressure (altimeter):30.33 inches Hg (1027.2 mb)
Winds:calm
Visibility:10 or more sm (16+ km)
Ceiling:4800 feet AGL
Clouds: broken clouds at 4800 feet AGL, overcast cloud deck at 5500 feet AGL
QC Flag:automated observation with no human augmentation
Text:K6B9 200255Z AUTO 00000KT 10SM BKN050 OVC055 M01/M03 A3034 RMK AO2
Temperature: -1.0°C ( 30°F)
Dewpoint: -3.0°C ( 27°F) [RH = 86%]
Pressure (altimeter):30.34 inches Hg (1027.5 mb)
Winds:calm
Visibility:10 or more sm (16+ km)
Ceiling:5000 feet AGL
Clouds: broken clouds at 5000 feet AGL, overcast cloud deck at 5500 feet AGL
QC Flag:automated observation with no human augmentation
Text:K6B9 200235Z AUTO 00000KT 10SM OVC050 M01/M03 A3034 RMK AO2
Temperature: -1.0°C ( 30°F)
Dewpoint: -3.0°C ( 27°F) [RH = 86%]
Pressure (altimeter):30.34 inches Hg (1027.5 mb)
Winds:calm
Visibility:10 or more sm (16+ km)
Ceiling:5000 feet AGL
Clouds: overcast cloud deck at 5000 feet AGL
QC Flag:automated observation with no human augmentation
Text:K6B9 200215Z AUTO 00000KT 10SM BKN055 M01/M03 A3034 RMK AO2
Temperature: -1.0°C ( 30°F)
Dewpoint: -3.0°C ( 27°F) [RH = 86%]
Pressure (altimeter):30.34 inches Hg (1027.5 mb)
Winds:calm
Visibility:10 or more sm (16+ km)
Ceiling:5500 feet AGL
Clouds: broken clouds at 5500 feet AGL
QC Flag:automated observation with no human augmentation
Text:K6B9 200155Z AUTO 00000KT 10SM FEW055 M01/M03 A3034 RMK AO2
Temperature: -1.0°C ( 30°F)
Dewpoint: -3.0°C ( 27°F) [RH = 86%]
Pressure (altimeter):30.34 inches Hg (1027.5 mb)
Winds:calm
Visibility:10 or more sm (16+ km)
Ceiling:at least 12,000 feet AGL
Clouds: few clouds at 5500 feet AGL
QC Flag:automated observation with no human augmentation
Text:K6B9 200135Z AUTO 00000KT M01/M03 A3034 RMK AO2
Temperature: -1.0°C ( 30°F)
Dewpoint: -3.0°C ( 27°F) [RH = 86%]
Pressure (altimeter):30.34 inches Hg (1027.5 mb)
Winds:calm
QC Flag:automated observation with no human augmentation
Text:K6B9 200115Z AUTO 00000KT 10SM FEW049 OVC055 M01/M03 A3034 RMK AO2
Temperature: -1.0°C ( 30°F)
Dewpoint: -3.0°C ( 27°F) [RH = 86%]
Pressure (altimeter):30.34 inches Hg (1027.5 mb)
Winds:calm
Visibility:10 or more sm (16+ km)
Ceiling:5500 feet AGL
Clouds: few clouds at 4900 feet AGL, overcast cloud deck at 5500 feet AGL
QC Flag:automated observation with no human augmentation
Text:K6B9 200055Z AUTO 00000KT 10SM FEW048 OVC055 M01/M03 A3034 RMK AO2
Temperature: -1.0°C ( 30°F)
Dewpoint: -3.0°C ( 27°F) [RH = 86%]
Pressure (altimeter):30.34 inches Hg (1027.5 mb)
Winds:calm
Visibility:10 or more sm (16+ km)
Ceiling:5500 feet AGL
Clouds: few clouds at 4800 feet AGL, overcast cloud deck at 5500 feet AGL
QC Flag:automated observation with no human augmentation
Text:K6B9 200035Z AUTO 00000KT 10SM FEW049 BKN060 OVC075 M01/M03 A3035 RMK AO2
Temperature: -1.0°C ( 30°F)
Dewpoint: -3.0°C ( 27°F) [RH = 86%]
Pressure (altimeter):30.35 inches Hg (1027.9 mb)
Winds:calm
Visibility:10 or more sm (16+ km)
Ceiling:6000 feet AGL
Clouds: few clouds at 4900 feet AGL, broken clouds at 6000 feet AGL, overcast cloud deck at 7500 feet AGL
QC Flag:automated observation with no human augmentation
Text:K6B9 200015Z AUTO 00000KT 10SM BKN070 OVC080 M00/M03 A3034 RMK AO2
Temperature: 0.0°C ( 32°F)
Dewpoint: -3.0°C ( 27°F) [RH = 80%]
Pressure (altimeter):30.34 inches Hg (1027.5 mb)
Winds:calm
Visibility:10 or more sm (16+ km)
Ceiling:7000 feet AGL
Clouds: broken clouds at 7000 feet AGL, overcast cloud deck at 8000 feet AGL
QC Flag:automated observation with no human augmentation
Text:K6B9 192355Z AUTO 00000KT 10SM OVC075 00/M03 A3034 RMK AO2
Temperature: 0.0°C ( 32°F)
Dewpoint: -3.0°C ( 27°F) [RH = 80%]
Pressure (altimeter):30.34 inches Hg (1027.5 mb)
Winds:calm
Visibility:10 or more sm (16+ km)
Ceiling:7500 feet AGL
Clouds: overcast cloud deck at 7500 feet AGL
QC Flag:automated observation with no human augmentation
Text:K6B9 192335Z AUTO 00000KT 10SM FEW055 FEW065 OVC075 01/M03 A3034 RMK AO2
Temperature: 1.0°C ( 34°F)
Dewpoint: -3.0°C ( 27°F) [RH = 75%]
Pressure (altimeter):30.34 inches Hg (1027.5 mb)
Winds:calm
Visibility:10 or more sm (16+ km)
Ceiling:7500 feet AGL
Clouds: few clouds at 5500 feet AGL, few clouds at 6500 feet AGL, overcast cloud deck at 7500 feet AGL
QC Flag:automated observation with no human augmentation
Text:K6B9 192315Z AUTO 00000KT 9SM SCT024 BKN055 OVC075 02/M03 A3034 RMK AO2
Temperature: 2.0°C ( 36°F)
Dewpoint: -3.0°C ( 27°F) [RH = 69%]
Pressure (altimeter):30.34 inches Hg (1027.5 mb)
Winds:calm
Visibility: 9 sm ( 14 km)
Ceiling:5500 feet AGL
Clouds: scattered clouds at 2400 feet AGL, broken clouds at 5500 feet AGL, overcast cloud deck at 7500 feet AGL
QC Flag:automated observation with no human augmentation
Text:K6B9 192255Z AUTO VRB03KT 10SM SCT023 SCT029 OVC055 03/M03 A3034 RMK AO2
Temperature: 3.0°C ( 37°F)
Dewpoint: -3.0°C ( 27°F) [RH = 65%]
Pressure (altimeter):30.34 inches Hg (1027.5 mb)
Winds:variable direction winds at 3 MPH (3 knots; 1.5 m/s)
Visibility:10 or more sm (16+ km)
Ceiling:5500 feet AGL
Clouds: scattered clouds at 2300 feet AGL, scattered clouds at 2900 feet AGL, overcast cloud deck at 5500 feet AGL
QC Flag:automated observation with no human augmentation
Text:K6B9 192235Z AUTO 00000KT 10SM FEW035 BKN055 OVC070 03/M04 A3034 RMK AO2
Temperature: 3.0°C ( 37°F)
Dewpoint: -4.0°C ( 25°F) [RH = 60%]
Pressure (altimeter):30.34 inches Hg (1027.5 mb)
Winds:calm
Visibility:10 or more sm (16+ km)
Ceiling:5500 feet AGL
Clouds: few clouds at 3500 feet AGL, broken clouds at 5500 feet AGL, overcast cloud deck at 7000 feet AGL
QC Flag:automated observation with no human augmentation
Text:K6B9 192215Z AUTO 00000KT 10SM SCT070 SCT085 03/M03 A3034 RMK AO2
Temperature: 3.0°C ( 37°F)
Dewpoint: -3.0°C ( 27°F) [RH = 65%]
Pressure (altimeter):30.34 inches Hg (1027.5 mb)
Winds:calm
Visibility:10 or more sm (16+ km)
Ceiling:at least 12,000 feet AGL
Clouds: scattered clouds at 7000 feet AGL, scattered clouds at 8500 feet AGL
QC Flag:automated observation with no human augmentation
Text:K6B9 192155Z AUTO 25006G11KT 10SM SCT033 SCT046 BKN075 03/M03 A3034 RMK AO2
Temperature: 3.0°C ( 37°F)
Dewpoint: -3.0°C ( 27°F) [RH = 65%]
Pressure (altimeter):30.34 inches Hg (1027.5 mb)
Winds:from the WSW (250 degrees) at 7 MPH (6 knots; 3.1 m/s) gusting to 13 MPH (11 knots; 5.7 m/s)
Visibility:10 or more sm (16+ km)
Ceiling:7500 feet AGL
Clouds: scattered clouds at 3300 feet AGL, scattered clouds at 4600 feet AGL, broken clouds at 7500 feet AGL
QC Flag:automated observation with no human augmentation
Text:K6B9 192135Z AUTO VRB06KT 10SM -UP FEW028 BKN035 OVC047 03/M03 A3035 RMK AO2
Temperature: 3.0°C ( 37°F)
Dewpoint: -3.0°C ( 27°F) [RH = 65%]
Pressure (altimeter):30.35 inches Hg (1027.9 mb)
Winds:variable direction winds at 7 MPH (6 knots; 3.1 m/s)
Visibility:10 or more sm (16+ km)
Ceiling:3500 feet AGL
Clouds: few clouds at 2800 feet AGL, broken clouds at 3500 feet AGL, overcast cloud deck at 4700 feet AGL
Weather:UP (unknown precipitation)
QC Flag:automated observation with no human augmentation
Text:K6B9 192115Z AUTO 22006KT 10SM FEW037 BKN045 BKN050 04/M03 A3034 RMK AO2
Temperature: 4.0°C ( 39°F)
Dewpoint: -3.0°C ( 27°F) [RH = 60%]
Pressure (altimeter):30.34 inches Hg (1027.5 mb)
Winds:from the SW (220 degrees) at 7 MPH (6 knots; 3.1 m/s)
Visibility:10 or more sm (16+ km)
Ceiling:4500 feet AGL
Clouds: few clouds at 3700 feet AGL, broken clouds at 4500 feet AGL, broken clouds at 5000 feet AGL
QC Flag:automated observation with no human augmentation
Text:K6B9 192055Z AUTO 22004KT 10SM SCT042 BKN048 BKN055 04/M05 A3034 RMK AO2
Temperature: 4.0°C ( 39°F)
Dewpoint: -5.0°C ( 23°F) [RH = 52%]
Pressure (altimeter):30.34 inches Hg (1027.5 mb)
Winds:from the SW (220 degrees) at 5 MPH (4 knots; 2.1 m/s)
Visibility:10 or more sm (16+ km)
Ceiling:4800 feet AGL
Clouds: scattered clouds at 4200 feet AGL, broken clouds at 4800 feet AGL, broken clouds at 5500 feet AGL
QC Flag:automated observation with no human augmentation
Text:K6B9 192035Z AUTO VRB03KT 10SM SCT046 BKN055 BKN075 04/M05 A3034 RMK AO2
Temperature: 4.0°C ( 39°F)
Dewpoint: -5.0°C ( 23°F) [RH = 52%]
Pressure (altimeter):30.34 inches Hg (1027.5 mb)
Winds:variable direction winds at 3 MPH (3 knots; 1.5 m/s)
Visibility:10 or more sm (16+ km)
Ceiling:5500 feet AGL
Clouds: scattered clouds at 4600 feet AGL, broken clouds at 5500 feet AGL, broken clouds at 7500 feet AGL
QC Flag:automated observation with no human augmentation
Text:K6B9 192015Z AUTO 00000KT 10SM FEW042 SCT047 BKN055 03/M04 A3035 RMK AO2
Temperature: 3.0°C ( 37°F)
Dewpoint: -4.0°C ( 25°F) [RH = 60%]
Pressure (altimeter):30.35 inches Hg (1027.9 mb)
Winds:calm
Visibility:10 or more sm (16+ km)
Ceiling:5500 feet AGL
Clouds: few clouds at 4200 feet AGL, scattered clouds at 4700 feet AGL, broken clouds at 5500 feet AGL
QC Flag:automated observation with no human augmentation
Text:K6B9 191955Z AUTO 36004G10KT 10SM SCT040 BKN045 BKN060 04/M04 A3035 RMK AO2
Temperature: 4.0°C ( 39°F)
Dewpoint: -4.0°C ( 25°F) [RH = 56%]
Pressure (altimeter):30.35 inches Hg (1027.9 mb)
Winds:from the N (360 degrees) at 5 MPH (4 knots; 2.1 m/s) gusting to 12 MPH (10 knots; 5.1 m/s)
Visibility:10 or more sm (16+ km)
Ceiling:4500 feet AGL
Clouds: scattered clouds at 4000 feet AGL, broken clouds at 4500 feet AGL, broken clouds at 6000 feet AGL
QC Flag:automated observation with no human augmentation
Text:K6B9 191935Z AUTO 24008G13KT 210V270 10SM FEW038 SCT046 BKN055 04/M05 A3035 RMK AO2
Temperature: 4.0°C ( 39°F)
Dewpoint: -5.0°C ( 23°F) [RH = 52%]
Pressure (altimeter):30.35 inches Hg (1027.9 mb)
Winds:from the WSW (240 degrees) at 9 MPH (8 knots; 4.1 m/s) gusting to 15 MPH (13 knots; 6.7 m/s)
Visibility:10 or more sm (16+ km)
Ceiling:5500 feet AGL
Clouds: few clouds at 3800 feet AGL, scattered clouds at 4600 feet AGL, broken clouds at 5500 feet AGL
QC Flag:automated observation with no human augmentation
Text:K6B9 191915Z AUTO VRB05G16KT 10SM SCT035 BKN043 OVC075 05/M03 A3035 RMK AO2
Temperature: 5.0°C ( 41°F)
Dewpoint: -3.0°C ( 27°F) [RH = 56%]
Pressure (altimeter):30.35 inches Hg (1027.9 mb)
Winds:variable direction winds at 6 MPH (5 knots; 2.6 m/s) gusting to 18 MPH (16 knots; 8.2 m/s)
Visibility:10 or more sm (16+ km)
Ceiling:4300 feet AGL
Clouds: scattered clouds at 3500 feet AGL, broken clouds at 4300 feet AGL, overcast cloud deck at 7500 feet AGL
QC Flag:automated observation with no human augmentation
Text:K6B9 191855Z AUTO 23008KT 210V270 10SM FEW032 SCT044 BKN050 04/M04 A3036 RMK AO2
Temperature: 4.0°C ( 39°F)
Dewpoint: -4.0°C ( 25°F) [RH = 56%]
Pressure (altimeter):30.36 inches Hg (1028.2 mb)
Winds:from the SW (230 degrees) at 9 MPH (8 knots; 4.1 m/s)
Visibility:10 or more sm (16+ km)
Ceiling:5000 feet AGL
Clouds: few clouds at 3200 feet AGL, scattered clouds at 4400 feet AGL, broken clouds at 5000 feet AGL
QC Flag:automated observation with no human augmentation
Text:K6B9 191835Z AUTO 00000G11KT 10SM SCT029 SCT034 BKN040 03/M03 A3037 RMK AO2
Temperature: 3.0°C ( 37°F)
Dewpoint: -3.0°C ( 27°F) [RH = 65%]
Pressure (altimeter):30.37 inches Hg (1028.5 mb)
Winds:calm
Visibility:10 or more sm (16+ km)
Ceiling:4000 feet AGL
Clouds: scattered clouds at 2900 feet AGL, scattered clouds at 3400 feet AGL, broken clouds at 4000 feet AGL
QC Flag:automated observation with no human augmentation
Text:K6B9 191815Z AUTO 24008KT 10SM SCT026 BKN032 BKN039 03/M03 A3038 RMK AO2
Temperature: 3.0°C ( 37°F)
Dewpoint: -3.0°C ( 27°F) [RH = 65%]
Pressure (altimeter):30.38 inches Hg (1028.9 mb)
Winds:from the WSW (240 degrees) at 9 MPH (8 knots; 4.1 m/s)
Visibility:10 or more sm (16+ km)
Ceiling:3200 feet AGL
Clouds: scattered clouds at 2600 feet AGL, broken clouds at 3200 feet AGL, broken clouds at 3900 feet AGL
QC Flag:automated observation with no human augmentation
Text:K6B9 191755Z AUTO VRB03KT 10SM SCT025 BKN030 BKN037 02/M02 A3039 RMK AO2
Temperature: 2.0°C ( 36°F)
Dewpoint: -2.0°C ( 28°F) [RH = 75%]
Pressure (altimeter):30.39 inches Hg (1029.2 mb)
Winds:variable direction winds at 3 MPH (3 knots; 1.5 m/s)
Visibility:10 or more sm (16+ km)
Ceiling:3000 feet AGL
Clouds: scattered clouds at 2500 feet AGL, broken clouds at 3000 feet AGL, broken clouds at 3700 feet AGL
QC Flag:automated observation with no human augmentation
Text:K6B9 191735Z AUTO 25006KT 10SM SCT023 BKN030 BKN036 02/M02 A3039 RMK AO2
Temperature: 2.0°C ( 36°F)
Dewpoint: -2.0°C ( 28°F) [RH = 75%]
Pressure (altimeter):30.39 inches Hg (1029.2 mb)
Winds:from the WSW (250 degrees) at 7 MPH (6 knots; 3.1 m/s)
Visibility:10 or more sm (16+ km)
Ceiling:3000 feet AGL
Clouds: scattered clouds at 2300 feet AGL, broken clouds at 3000 feet AGL, broken clouds at 3600 feet AGL
QC Flag:automated observation with no human augmentation
Text:K6B9 191715Z AUTO VRB05KT 10SM BKN022 OVC027 01/M03 A3040 RMK AO2
Temperature: 1.0°C ( 34°F)
Dewpoint: -3.0°C ( 27°F) [RH = 75%]
Pressure (altimeter):30.40 inches Hg (1029.5 mb)
Winds:variable direction winds at 6 MPH (5 knots; 2.6 m/s)
Visibility:10 or more sm (16+ km)
Ceiling:2200 feet AGL
Clouds: broken clouds at 2200 feet AGL, overcast cloud deck at 2700 feet AGL
QC Flag:automated observation with no human augmentation
Text:K6B9 191655Z AUTO 25005KT 10SM BKN020 BKN029 01/M04 A3040 RMK AO2
Temperature: 1.0°C ( 34°F)
Dewpoint: -4.0°C ( 25°F) [RH = 69%]
Pressure (altimeter):30.40 inches Hg (1029.5 mb)
Winds:from the WSW (250 degrees) at 6 MPH (5 knots; 2.6 m/s)
Visibility:10 or more sm (16+ km)
Ceiling:2000 feet AGL
Clouds: broken clouds at 2000 feet AGL, broken clouds at 2900 feet AGL
QC Flag:automated observation with no human augmentation
Text:K6B9 191635Z AUTO 27006KT 10SM BKN019 OVC025 00/M03 A3040 RMK AO2
Temperature: 0.0°C ( 32°F)
Dewpoint: -3.0°C ( 27°F) [RH = 80%]
Pressure (altimeter):30.40 inches Hg (1029.5 mb)
Winds:from the W (270 degrees) at 7 MPH (6 knots; 3.1 m/s)
Visibility:10 or more sm (16+ km)
Ceiling:1900 feet AGL
Clouds: broken clouds at 1900 feet AGL, overcast cloud deck at 2500 feet AGL
QC Flag:automated observation with no human augmentation
Text:K6B9 191615Z AUTO 24007KT 10SM BKN017 OVC024 00/M03 A3040 RMK AO2
Temperature: 0.0°C ( 32°F)
Dewpoint: -3.0°C ( 27°F) [RH = 80%]
Pressure (altimeter):30.40 inches Hg (1029.5 mb)
Winds:from the WSW (240 degrees) at 8 MPH (7 knots; 3.6 m/s)
Visibility:10 or more sm (16+ km)
Ceiling:1700 feet AGL
Clouds: broken clouds at 1700 feet AGL, overcast cloud deck at 2400 feet AGL
QC Flag:automated observation with no human augmentation
Text:K6B9 191555Z AUTO VRB05G10KT BKN013 BKN023 M00/M03 A3040 RMK AO2
Temperature: 0.0°C ( 32°F)
Dewpoint: -3.0°C ( 27°F) [RH = 80%]
Pressure (altimeter):30.40 inches Hg (1029.5 mb)
Winds:variable direction winds at 6 MPH (5 knots; 2.6 m/s) gusting to 12 MPH (10 knots; 5.1 m/s)
Ceiling:1300 feet AGL
Clouds: broken clouds at 1300 feet AGL, broken clouds at 2300 feet AGL
QC Flag:automated observation with no human augmentation
Text:K6B9 191535Z AUTO 22005KT 10SM BKN013 BKN018 00/M02 A3040 RMK AO2
Temperature: 0.0°C ( 32°F)
Dewpoint: -2.0°C ( 28°F) [RH = 86%]
Pressure (altimeter):30.40 inches Hg (1029.5 mb)
Winds:from the SW (220 degrees) at 6 MPH (5 knots; 2.6 m/s)
Visibility:10 or more sm (16+ km)
Ceiling:1300 feet AGL
Clouds: broken clouds at 1300 feet AGL, broken clouds at 1800 feet AGL
QC Flag:automated observation with no human augmentation